createdAt,value
2023-05-14T00:00:52.528Z,4.27
2023-05-14T00:03:19.993Z,4.10
2023-05-14T00:05:47.535Z,4.87
2023-05-14T00:08:15.610Z,4.10
2023-05-14T00:10:42.964Z,4.10
2023-05-14T00:13:10.781Z,4.53
2023-05-14T00:15:38.590Z,3.93
2023-05-14T00:18:07.120Z,3.53
2023-05-14T00:20:34.544Z,3.60
2023-05-14T00:23:02.112Z,3.70
2023-05-14T00:25:29.823Z,3.43
2023-05-14T00:27:57.244Z,4.10
2023-05-14T00:30:24.862Z,3.60
2023-05-14T00:32:52.551Z,4.13
2023-05-14T00:35:21.518Z,3.87
2023-05-14T00:37:49.098Z,4.17
2023-05-14T00:40:16.615Z,3.83
2023-05-14T00:42:44.630Z,3.57
2023-05-14T00:45:12.179Z,4.00
2023-05-14T00:47:40.286Z,3.60
2023-05-14T00:50:09.332Z,4.07
2023-05-14T00:52:37.046Z,4.57
2023-05-14T00:55:08.418Z,4.40
2023-05-14T00:57:36.545Z,4.20
2023-05-14T01:00:04.700Z,3.60
2023-05-14T01:02:32.310Z,3.50
2023-05-14T01:04:59.664Z,3.77
2023-05-14T01:07:45.934Z,3.90
2023-05-14T01:10:22.300Z,4.07
2023-05-14T01:12:55.700Z,4.20
2023-05-14T01:15:26.324Z,3.93
2023-05-14T01:18:14.400Z,3.67
2023-05-14T01:20:41.794Z,3.63
2023-05-14T01:23:09.159Z,3.87
2023-05-14T01:25:36.607Z,3.77
2023-05-14T01:28:17.926Z,3.97
2023-05-14T01:31:01.872Z,3.90
2023-05-14T01:33:30.531Z,3.23
2023-05-14T01:35:58.593Z,3.87
2023-05-14T01:38:30.327Z,4.00
2023-05-14T01:40:58.265Z,3.57
2023-05-14T01:43:25.801Z,3.20
2023-05-14T01:45:55.613Z,3.43
2023-05-14T01:48:23.196Z,3.87
2023-05-14T01:50:51.529Z,3.50
2023-05-14T01:53:19.071Z,3.10
2023-05-14T01:55:46.715Z,3.70
2023-05-14T01:58:14.416Z,3.10
2023-05-14T02:00:42.017Z,3.73
2023-05-14T02:03:09.573Z,3.63
2023-05-14T02:05:37.048Z,3.57
2023-05-14T02:08:04.709Z,3.67
2023-05-14T02:10:33.294Z,3.83
2023-05-14T02:13:00.895Z,2.83
2023-05-14T02:15:28.230Z,3.63
2023-05-14T02:17:55.885Z,3.40
2023-05-14T02:20:23.574Z,3.87
2023-05-14T02:22:51.464Z,3.70
2023-05-14T02:25:19.200Z,3.43
2023-05-14T02:27:47.210Z,3.90
2023-05-14T02:30:14.717Z,3.60
2023-05-14T02:32:42.170Z,3.17
2023-05-14T02:35:09.935Z,3.50
2023-05-14T02:37:38.060Z,3.03
2023-05-14T02:40:05.653Z,3.30
2023-05-14T02:42:33.294Z,2.90
2023-05-14T02:45:00.749Z,3.67
2023-05-14T02:47:28.405Z,3.30
2023-05-14T02:49:55.823Z,3.80
2023-05-14T02:52:23.797Z,3.30
2023-05-14T02:54:51.249Z,3.23
2023-05-14T02:57:18.772Z,3.93
2023-05-14T02:59:46.286Z,3.27
2023-05-14T03:02:14.231Z,3.83
2023-05-14T03:04:42.348Z,3.80
2023-05-14T03:07:09.748Z,3.20
2023-05-14T03:09:38.462Z,3.53
2023-05-14T03:12:06.776Z,4.03
2023-05-14T03:14:34.382Z,3.33
2023-05-14T03:17:02.063Z,4.37
2023-05-14T03:19:29.721Z,3.20
2023-05-14T03:21:57.118Z,3.10
2023-05-14T03:24:24.570Z,3.43
2023-05-14T03:26:52.008Z,3.40
2023-05-14T03:29:19.649Z,3.80
2023-05-14T03:31:50.035Z,3.67
2023-05-14T03:34:17.518Z,3.50
2023-05-14T03:36:45.110Z,3.87
2023-05-14T03:39:15.590Z,4.10
2023-05-14T03:41:43.254Z,4.53
2023-05-14T03:44:10.628Z,4.37
2023-05-14T03:46:38.107Z,4.53
2023-05-14T03:49:05.633Z,4.10
2023-05-14T03:51:33.228Z,3.80
2023-05-14T03:54:00.784Z,3.50
2023-05-14T03:56:28.468Z,5.40
2023-05-14T03:58:56.063Z,4.90
2023-05-14T04:01:23.536Z,4.20
2023-05-14T04:03:51.486Z,3.80
2023-05-14T04:06:19.140Z,4.27
2023-05-14T04:08:46.557Z,4.23
2023-05-14T04:11:14.189Z,5.43
2023-05-14T04:13:42.716Z,4.73
2023-05-14T04:16:10.996Z,5.47
2023-05-14T04:18:38.654Z,4.57
2023-05-14T04:21:06.294Z,4.57
2023-05-14T04:23:33.795Z,3.73
2023-05-14T04:26:01.229Z,5.00
2023-05-14T04:28:31.927Z,4.73
2023-05-14T04:30:59.507Z,4.70
2023-05-14T04:33:27.137Z,4.83
2023-05-14T04:35:54.735Z,4.60
2023-05-14T04:38:22.135Z,5.00
2023-05-14T04:40:49.446Z,5.63
2023-05-14T04:43:17.594Z,5.00
2023-05-14T04:45:45.034Z,4.17
2023-05-14T04:48:12.739Z,5.13
2023-05-14T04:50:40.072Z,5.20
2023-05-14T04:53:07.630Z,4.80
2023-05-14T04:55:35.344Z,5.07
2023-05-14T04:58:02.953Z,5.17
2023-05-14T05:00:30.883Z,4.73
2023-05-14T05:02:58.434Z,5.43
2023-05-14T05:05:26.068Z,5.33
2023-05-14T05:07:53.606Z,4.93
2023-05-14T05:10:20.998Z,5.20
2023-05-14T05:12:48.463Z,4.97
2023-05-14T05:15:16.169Z,5.75
2023-05-14T05:17:43.580Z,5.10
2023-05-14T05:20:11.257Z,5.40
2023-05-14T05:22:38.691Z,5.20
2023-05-14T05:25:06.399Z,5.07
2023-05-14T05:27:33.928Z,5.60
2023-05-14T05:30:02.254Z,5.03
2023-05-14T05:32:29.664Z,4.73
2023-05-14T05:34:57.349Z,4.80
2023-05-14T05:37:24.633Z,5.10
2023-05-14T05:39:52.179Z,5.47
2023-05-14T05:42:19.458Z,5.40
2023-05-14T05:44:46.799Z,5.53
2023-05-14T05:47:14.129Z,4.10
2023-05-14T05:49:41.491Z,5.07
2023-05-14T05:52:09.135Z,4.27
2023-05-14T05:54:39.500Z,5.40
2023-05-14T05:57:07.045Z,5.13
2023-05-14T05:59:34.570Z,5.03
2023-05-14T06:02:02.033Z,5.10
2023-05-14T06:04:29.578Z,5.20
2023-05-14T06:06:56.989Z,4.70
2023-05-14T06:09:24.536Z,5.77
2023-05-14T06:11:51.984Z,4.73
2023-05-14T06:14:19.413Z,5.60
2023-05-14T06:16:46.856Z,4.53
2023-05-14T06:19:14.534Z,4.63
2023-05-14T06:21:41.881Z,4.80
2023-05-14T06:24:09.322Z,4.77
2023-05-14T06:26:39.340Z,4.37
2023-05-14T06:29:06.845Z,4.60
2023-05-14T06:31:34.238Z,4.50
2023-05-14T06:34:01.750Z,5.13
2023-05-14T06:36:29.081Z,4.13
2023-05-14T06:38:56.474Z,4.60
2023-05-14T06:41:23.838Z,4.57
2023-05-14T06:43:51.342Z,4.97
2023-05-14T06:46:18.720Z,4.67
2023-05-14T06:48:46.222Z,4.33
2023-05-14T06:51:13.601Z,4.37
2023-05-14T06:53:41.613Z,3.93
2023-05-14T06:56:09.657Z,4.03
2023-05-14T06:58:37.210Z,4.63
2023-05-14T07:01:04.728Z,4.80
2023-05-14T07:03:32.263Z,3.90
2023-05-14T07:05:59.621Z,3.90
2023-05-14T07:08:29.259Z,4.50
2023-05-14T07:10:57.428Z,4.30
2023-05-14T07:13:28.278Z,4.47
2023-05-14T07:15:56.232Z,4.03
2023-05-14T07:18:24.432Z,4.17
2023-05-14T07:20:51.967Z,4.33
2023-05-14T07:23:20.008Z,3.93
2023-05-14T07:25:47.621Z,4.27
2023-05-14T07:28:15.166Z,4.30
2023-05-14T07:30:42.536Z,3.80
2023-05-14T07:33:10.098Z,4.30
2023-05-14T07:35:37.539Z,3.73
2023-05-14T07:38:05.840Z,3.70
2023-05-14T07:40:33.185Z,3.77
2023-05-14T07:43:00.767Z,3.27
2023-05-14T07:45:29.287Z,4.03
2023-05-14T07:47:56.721Z,3.50
2023-05-14T07:50:24.488Z,4.23
2023-05-14T07:52:52.180Z,3.87
2023-05-14T07:55:19.634Z,4.00
2023-05-14T07:57:47.188Z,3.97
2023-05-14T08:00:15.924Z,3.60
2023-05-14T08:02:43.848Z,3.73
2023-05-14T08:05:11.237Z,3.83
2023-05-14T08:07:38.609Z,3.60
2023-05-14T08:10:07.684Z,3.83
2023-05-14T08:12:35.272Z,4.10
2023-05-14T08:15:03.160Z,4.10
2023-05-14T08:17:30.699Z,3.43
2023-05-14T08:19:58.146Z,3.63
2023-05-14T08:22:25.782Z,3.93
2023-05-14T08:24:53.160Z,3.50
2023-05-14T08:27:21.540Z,3.73
2023-05-14T08:29:49.182Z,4.03
2023-05-14T08:32:23.201Z,3.83
2023-05-14T08:34:51.768Z,4.17
2023-05-14T08:37:19.504Z,3.67
2023-05-14T08:39:47.104Z,3.93
2023-05-14T08:42:16.458Z,3.50
2023-05-14T08:44:50.642Z,3.70
2023-05-14T08:47:19.213Z,3.97
2023-05-14T08:49:54.061Z,3.83
2023-05-14T08:52:23.277Z,3.60
2023-05-14T08:54:51.856Z,3.30
2023-05-14T08:57:19.505Z,3.67
2023-05-14T08:59:47.301Z,3.80
2023-05-14T09:02:16.913Z,3.30
2023-05-14T09:04:44.607Z,3.07
2023-05-14T09:07:12.112Z,3.30
2023-05-14T09:09:39.466Z,3.47
2023-05-14T09:12:07.204Z,3.20
2023-05-14T09:14:34.659Z,3.63
2023-05-14T09:17:02.256Z,2.80
2023-05-14T09:19:29.785Z,3.10
2023-05-14T09:22:01.180Z,3.17
2023-05-14T09:24:32.011Z,3.47
2023-05-14T09:26:59.581Z,3.27
2023-05-14T09:29:27.545Z,3.20
2023-05-14T09:31:55.845Z,2.57
2023-05-14T09:34:27.346Z,3.10
2023-05-14T09:36:58.642Z,3.50
2023-05-14T09:39:26.950Z,3.20
2023-05-14T09:41:54.901Z,2.80
2023-05-14T09:44:23.328Z,3.33
2023-05-14T09:46:51.387Z,2.87
2023-05-14T09:49:19.280Z,3.00
2023-05-14T09:51:47.131Z,2.90
2023-05-14T09:54:14.568Z,3.37
2023-05-14T09:56:41.881Z,2.97
2023-05-14T09:59:09.284Z,2.77
2023-05-14T10:01:36.960Z,2.53
2023-05-14T10:04:07.040Z,2.63
2023-05-14T10:06:37.098Z,3.23
2023-05-14T10:09:06.072Z,2.87
2023-05-14T10:11:38.679Z,2.80
2023-05-14T10:14:12.519Z,3.10
2023-05-14T10:16:42.448Z,2.87
2023-05-14T10:19:11.345Z,2.53
2023-05-14T10:21:41.098Z,2.77
2023-05-14T10:24:09.132Z,2.70
2023-05-14T10:26:39.328Z,2.83
2023-05-14T10:29:07.350Z,2.87
2023-05-14T10:31:54.613Z,2.57
2023-05-14T10:34:44.290Z,2.43
2023-05-14T10:37:15.859Z,2.33
2023-05-14T10:39:43.367Z,2.50
2023-05-14T10:42:16.247Z,2.50
2023-05-14T10:44:49.660Z,2.63
2023-05-14T10:47:17.974Z,2.50
2023-05-14T10:49:49.006Z,2.43
2023-05-14T10:52:20.328Z,2.40
2023-05-14T10:54:51.994Z,2.80
2023-05-14T10:57:20.156Z,2.80
2023-05-14T10:59:48.526Z,2.60
2023-05-14T11:02:37.062Z,2.70
2023-05-14T11:05:05.870Z,2.47
2023-05-14T11:07:38.070Z,2.40
2023-05-14T11:10:06.787Z,2.73
2023-05-14T11:12:35.007Z,2.47
2023-05-14T11:15:03.954Z,2.20
2023-05-14T11:17:32.098Z,2.70
2023-05-14T11:19:59.997Z,2.13
2023-05-14T11:22:27.575Z,2.70
2023-05-14T11:24:54.942Z,2.50
2023-05-14T11:27:24.117Z,2.73
2023-05-14T11:29:51.754Z,2.20
2023-05-14T11:32:19.561Z,2.30
2023-05-14T11:34:47.682Z,2.30
2023-05-14T11:37:16.224Z,2.13
2023-05-14T11:39:47.613Z,2.30
2023-05-14T11:42:20.100Z,2.57
2023-05-14T11:44:49.072Z,1.83
2023-05-14T11:47:17.612Z,2.30
2023-05-14T11:49:45.417Z,2.50
2023-05-14T11:52:15.546Z,2.10
2023-05-14T11:54:43.901Z,1.90
2023-05-14T11:57:21.338Z,1.87
2023-05-14T11:59:49.845Z,2.10
2023-05-14T12:02:18.728Z,2.50
2023-05-14T12:04:51.196Z,2.10
2023-05-14T12:07:18.964Z,1.83
2023-05-14T12:09:50.142Z,2.60
2023-05-14T12:12:21.580Z,2.60
2023-05-14T12:14:49.651Z,2.03
2023-05-14T12:17:21.263Z,2.37
2023-05-14T12:19:49.659Z,1.80
2023-05-14T12:22:22.588Z,2.00
2023-05-14T12:24:53.929Z,1.70
2023-05-14T12:27:23.796Z,2.37
2023-05-14T12:30:16.806Z,1.90
2023-05-14T12:32:51.477Z,1.87
2023-05-14T12:35:43.741Z,1.93
2023-05-14T12:38:11.294Z,1.70
2023-05-14T12:40:38.859Z,2.30
2023-05-14T12:43:08.971Z,2.00
2023-05-14T12:45:36.422Z,2.20
2023-05-14T12:48:04.121Z,2.00
2023-05-14T12:50:31.574Z,2.20
2023-05-14T12:52:59.130Z,2.20
2023-05-14T12:55:26.594Z,1.77
2023-05-14T12:57:54.848Z,2.30
2023-05-14T13:00:22.416Z,1.93
2023-05-14T13:02:50.358Z,2.10
2023-05-14T13:05:17.717Z,2.37
2023-05-14T13:07:45.148Z,2.10
2023-05-14T13:10:12.679Z,1.70
2023-05-14T13:12:40.192Z,2.10
2023-05-14T13:15:07.807Z,2.10
2023-05-14T13:17:35.385Z,2.53
2023-05-14T13:20:02.842Z,2.17
2023-05-14T13:22:30.385Z,2.73
2023-05-14T13:24:58.818Z,2.30
2023-05-14T13:27:26.209Z,2.20
2023-05-14T13:29:53.595Z,2.30
2023-05-14T13:32:21.022Z,2.20
2023-05-14T13:34:48.494Z,2.47
2023-05-14T13:37:16.078Z,2.43
2023-05-14T13:39:43.503Z,2.57
2023-05-14T13:42:10.835Z,2.40
2023-05-14T13:44:38.181Z,2.80
2023-05-14T13:47:05.850Z,2.57
2023-05-14T13:49:33.282Z,2.70
2023-05-14T13:52:00.856Z,2.30
2023-05-14T13:54:28.276Z,2.70
2023-05-14T13:56:56.122Z,2.70
2023-05-14T13:59:23.973Z,2.63
2023-05-14T14:01:52.324Z,2.40
2023-05-14T14:04:22.116Z,2.93
2023-05-14T14:06:49.822Z,3.17
2023-05-14T14:09:17.316Z,2.30
2023-05-14T14:11:44.842Z,2.50
2023-05-14T14:14:12.238Z,2.43
2023-05-14T14:16:39.741Z,2.87
2023-05-14T14:19:07.668Z,2.33
2023-05-14T14:21:35.438Z,2.40
2023-05-14T14:24:02.963Z,2.17
2023-05-14T14:26:30.673Z,2.40
2023-05-14T14:28:58.462Z,2.10
2023-05-14T14:31:25.932Z,2.00
2023-05-14T14:33:54.447Z,1.70
2023-05-14T14:36:21.875Z,2.00
2023-05-14T14:38:49.318Z,1.77
2023-05-14T14:41:16.686Z,1.97
2023-05-14T14:43:44.614Z,2.20
2023-05-14T14:46:12.097Z,1.90
2023-05-14T14:48:39.952Z,2.53
2023-05-14T14:51:08.066Z,2.17
2023-05-14T14:53:36.462Z,2.00
2023-05-14T14:56:04.119Z,1.80
2023-05-14T14:58:31.725Z,1.60
2023-05-14T15:01:01.747Z,2.00
2023-05-14T15:03:29.465Z,2.10
2023-05-14T15:05:57.352Z,2.00
2023-05-14T15:08:28.827Z,2.00
2023-05-14T15:10:59.517Z,2.10
2023-05-14T15:13:27.227Z,1.90
2023-05-14T15:15:54.773Z,2.10
2023-05-14T15:18:22.384Z,1.90
2023-05-14T15:20:50.024Z,2.10
2023-05-14T15:23:17.575Z,2.10
2023-05-14T15:25:45.130Z,2.40
2023-05-14T15:28:12.614Z,2.00
2023-05-14T15:30:40.012Z,2.20
2023-05-14T15:33:11.563Z,2.23
2023-05-14T15:35:39.242Z,1.80
2023-05-14T15:38:08.151Z,1.93
2023-05-14T15:40:36.101Z,1.90
2023-05-14T15:43:03.724Z,2.60
2023-05-14T15:45:31.189Z,1.90
2023-05-14T15:47:58.774Z,1.80
2023-05-14T15:50:27.386Z,2.10
2023-05-14T15:52:54.893Z,1.87
2023-05-14T15:55:22.404Z,2.53
2023-05-14T15:57:49.756Z,1.90
2023-05-14T16:00:17.634Z,1.90
2023-05-14T16:02:45.333Z,2.30
2023-05-14T16:05:12.801Z,2.50
2023-05-14T16:07:40.305Z,2.33
2023-05-14T16:10:08.144Z,2.43
2023-05-14T16:12:36.663Z,2.40
2023-05-14T16:15:20.471Z,2.40
2023-05-14T16:17:50.341Z,1.93
2023-05-14T16:20:18.809Z,1.93
2023-05-14T16:22:46.282Z,1.80
2023-05-14T16:25:13.730Z,2.30
2023-05-14T16:27:41.157Z,2.20
2023-05-14T16:30:08.917Z,2.43
2023-05-14T16:32:36.583Z,2.10
2023-05-14T16:35:04.379Z,2.43
2023-05-14T16:37:32.476Z,1.93
2023-05-14T16:39:59.994Z,1.87
2023-05-14T16:42:27.705Z,1.90
2023-05-14T16:44:55.029Z,2.37
2023-05-14T16:47:22.770Z,2.43
2023-05-14T16:49:50.148Z,1.90
2023-05-14T16:52:17.711Z,2.13
2023-05-14T16:54:45.912Z,1.90
2023-05-14T16:57:13.463Z,1.93
2023-05-14T16:59:41.051Z,2.30
2023-05-14T17:02:08.884Z,2.50
2023-05-14T17:04:38.804Z,2.00
2023-05-14T17:07:06.429Z,1.87
2023-05-14T17:09:33.973Z,2.23
2023-05-14T17:12:01.402Z,1.87
2023-05-14T17:14:28.823Z,2.03
2023-05-14T17:16:56.374Z,1.83
2023-05-14T17:19:23.755Z,2.00
2023-05-14T17:22:01.975Z,1.87
2023-05-14T17:24:36.443Z,2.07
2023-05-14T17:27:04.059Z,2.63
2023-05-14T17:29:31.435Z,2.00
2023-05-14T17:31:59.071Z,2.20
2023-05-14T17:34:26.908Z,2.13
2023-05-14T17:36:54.320Z,2.47
2023-05-14T17:39:21.712Z,2.00
2023-05-14T17:41:49.142Z,2.23
2023-05-14T17:44:19.927Z,2.30
2023-05-14T17:46:49.418Z,1.90
2023-05-14T17:49:19.095Z,2.20
2023-05-14T17:51:46.653Z,2.50
2023-05-14T17:54:14.823Z,2.17
2023-05-14T17:56:42.289Z,2.07
2023-05-14T17:59:09.761Z,2.00
2023-05-14T18:01:37.224Z,1.73
2023-05-14T18:04:04.995Z,2.10
2023-05-14T18:06:32.517Z,1.70
2023-05-14T18:08:59.847Z,2.03
2023-05-14T18:11:32.670Z,2.00
2023-05-14T18:14:00.543Z,1.80
2023-05-14T18:16:28.025Z,2.13
2023-05-14T18:19:00.316Z,1.97
2023-05-14T18:21:28.846Z,2.13
2023-05-14T18:23:57.328Z,1.80
2023-05-14T18:26:24.785Z,1.63
2023-05-14T18:28:52.459Z,1.70
2023-05-14T18:31:24.958Z,1.70
2023-05-14T18:33:52.413Z,1.83
2023-05-14T18:36:19.922Z,2.00
2023-05-14T18:38:47.416Z,2.00
2023-05-14T18:41:15.099Z,1.90
2023-05-14T18:43:42.701Z,2.00
2023-05-14T18:46:11.270Z,1.67
2023-05-14T18:48:38.885Z,1.90
2023-05-14T18:51:06.325Z,1.90
2023-05-14T18:53:51.138Z,1.90
2023-05-14T18:56:18.580Z,2.10
2023-05-14T18:58:46.046Z,1.87
2023-05-14T19:01:13.681Z,1.87
2023-05-14T19:03:42.485Z,1.90
2023-05-14T19:06:11.856Z,1.97
2023-05-14T19:08:42.533Z,1.80
2023-05-14T19:11:10.097Z,2.00
2023-05-14T19:13:37.454Z,1.90
2023-05-14T19:16:04.994Z,2.00
2023-05-14T19:18:32.519Z,2.10
2023-05-14T19:21:00.026Z,2.03
2023-05-14T19:23:31.179Z,1.83
2023-05-14T19:25:58.673Z,2.20
2023-05-14T19:28:26.072Z,2.10
2023-05-14T19:30:53.602Z,2.03
2023-05-14T19:33:20.989Z,2.57
2023-05-14T19:35:48.436Z,1.83
2023-05-14T19:38:16.076Z,2.30
2023-05-14T19:40:44.426Z,2.30
2023-05-14T19:43:12.626Z,2.13
2023-05-14T19:45:40.223Z,2.50
2023-05-14T19:48:07.750Z,2.47
2023-05-14T19:50:38.687Z,2.57
2023-05-14T19:53:06.178Z,2.87
2023-05-14T19:55:33.543Z,2.60
2023-05-14T19:58:01.048Z,2.47
2023-05-14T20:00:28.498Z,2.43
2023-05-14T20:02:59.699Z,2.67
2023-05-14T20:05:27.628Z,2.47
2023-05-14T20:07:55.775Z,2.37
2023-05-14T20:10:24.203Z,2.40
2023-05-14T20:12:51.888Z,2.77
2023-05-14T20:15:19.566Z,2.83
2023-05-14T20:17:47.005Z,2.10
2023-05-14T20:20:14.452Z,2.70
2023-05-14T20:22:42.821Z,2.83
2023-05-14T20:25:10.509Z,2.70
2023-05-14T20:27:38.078Z,2.63
2023-05-14T20:30:06.120Z,3.03
2023-05-14T20:32:33.606Z,3.20
2023-05-14T20:35:02.638Z,2.70
2023-05-14T20:37:30.630Z,3.40
2023-05-14T20:39:58.200Z,3.27
2023-05-14T20:42:26.038Z,2.93
2023-05-14T20:44:53.924Z,3.30
2023-05-14T20:47:24.512Z,3.37
2023-05-14T20:49:52.159Z,2.97
2023-05-14T20:52:19.767Z,3.63
2023-05-14T20:54:47.180Z,2.90
2023-05-14T20:57:19.444Z,3.03
2023-05-14T20:59:47.598Z,3.07
2023-05-14T21:02:15.096Z,3.43
2023-05-14T21:04:42.840Z,3.10
2023-05-14T21:07:10.316Z,3.60
2023-05-14T21:09:40.565Z,3.10
2023-05-14T21:12:08.367Z,3.37
2023-05-14T21:14:35.782Z,3.03
2023-05-14T21:17:03.553Z,3.10
2023-05-14T21:19:31.179Z,3.17
2023-05-14T21:21:58.532Z,3.13
2023-05-14T21:24:25.906Z,3.00
2023-05-14T21:26:53.746Z,3.60
2023-05-14T21:29:21.217Z,3.37
2023-05-14T21:31:49.346Z,3.33
2023-05-14T21:34:16.855Z,3.07
2023-05-14T21:36:44.244Z,3.37
2023-05-14T21:39:11.639Z,3.87
2023-05-14T21:41:38.979Z,3.27
2023-05-14T21:44:06.322Z,3.70
2023-05-14T21:46:33.967Z,3.90
2023-05-14T21:49:01.399Z,3.50
2023-05-14T21:51:28.867Z,3.40
2023-05-14T21:53:56.217Z,3.27
2023-05-14T21:56:24.115Z,3.73
2023-05-14T21:58:51.578Z,3.90
2023-05-14T22:01:19.027Z,3.70
2023-05-14T22:03:46.624Z,3.73
2023-05-14T22:06:13.979Z,4.00
2023-05-14T22:08:41.386Z,3.87
2023-05-14T22:11:08.840Z,3.60
2023-05-14T22:13:40.711Z,3.53
2023-05-14T22:16:13.341Z,3.97
2023-05-14T22:18:42.378Z,3.73
2023-05-14T22:21:09.816Z,3.23
2023-05-14T22:23:37.562Z,3.90
2023-05-14T22:26:05.151Z,3.57
2023-05-14T22:28:32.529Z,3.63
2023-05-14T22:31:00.056Z,4.07
2023-05-14T22:33:27.467Z,4.00
2023-05-14T22:35:54.771Z,3.33
2023-05-14T22:38:22.103Z,2.97
2023-05-14T22:40:49.515Z,3.80
2023-05-14T22:43:17.157Z,3.47
2023-05-14T22:45:44.786Z,3.40
2023-05-14T22:48:12.102Z,3.47
2023-05-14T22:50:39.478Z,3.67
2023-05-14T22:53:06.833Z,3.47
2023-05-14T22:55:34.223Z,3.83
2023-05-14T22:58:02.086Z,4.07
2023-05-14T23:00:29.386Z,3.63
2023-05-14T23:02:57.108Z,3.13
2023-05-14T23:05:24.791Z,3.40
2023-05-14T23:07:53.426Z,3.40
2023-05-14T23:10:20.941Z,3.00
2023-05-14T23:12:48.367Z,3.70
2023-05-14T23:15:15.862Z,3.83
2023-05-14T23:17:43.337Z,3.50
2023-05-14T23:20:12.704Z,3.40
2023-05-14T23:22:40.857Z,3.90
2023-05-14T23:25:08.466Z,3.83
2023-05-14T23:27:36.157Z,3.63
2023-05-14T23:30:04.402Z,3.63
2023-05-14T23:32:32.023Z,3.63
2023-05-14T23:34:59.374Z,3.53
2023-05-14T23:37:26.902Z,3.90
2023-05-14T23:39:54.375Z,4.33
2023-05-14T23:42:21.786Z,4.23
2023-05-14T23:44:49.236Z,4.13
2023-05-14T23:47:16.700Z,4.80
2023-05-14T23:49:44.119Z,4.07
2023-05-14T23:52:11.512Z,3.90
2023-05-14T23:54:39.161Z,4.10
2023-05-14T23:57:06.995Z,4.20
2023-05-14T23:59:36.823Z,4.67
